createdAt,value
2023-03-20T00:03:57.668Z,19.57
2023-03-20T00:08:02.665Z,19.50
2023-03-20T00:12:07.392Z,17.00
2023-03-20T00:16:13.178Z,15.07
2023-03-20T00:20:18.373Z,16.77
2023-03-20T00:24:24.524Z,13.97
2023-03-20T00:28:40.882Z,18.30
2023-03-20T00:32:44.701Z,16.93
2023-03-20T00:36:51.072Z,14.70
2023-03-20T00:40:56.610Z,16.97
2023-03-20T00:45:01.523Z,15.70
2023-03-20T00:49:05.272Z,15.70
2023-03-20T00:53:13.175Z,14.63
2023-03-20T00:57:24.612Z,15.63
2023-03-20T01:01:28.402Z,18.50
2023-03-20T01:05:32.917Z,14.97
2023-03-20T01:09:36.777Z,13.40
2023-03-20T01:13:42.784Z,15.03
2023-03-20T01:17:47.047Z,16.00
2023-03-20T01:21:50.749Z,16.53
2023-03-20T01:25:55.298Z,16.80
2023-03-20T01:30:00.772Z,16.70
2023-03-20T01:34:06.553Z,16.17
2023-03-20T01:38:16.360Z,16.37
2023-03-20T01:42:20.243Z,17.50
2023-03-20T01:46:30.159Z,16.43
2023-03-20T01:50:42.684Z,15.43
2023-03-20T01:54:50.150Z,19.23
2023-03-20T01:58:58.609Z,15.40
2023-03-20T02:03:07.494Z,13.80
2023-03-20T02:07:32.239Z,13.37
2023-03-20T02:11:39.929Z,15.00
2023-03-20T02:16:03.743Z,13.70
2023-03-20T02:20:41.810Z,12.70
2023-03-20T02:25:31.820Z,17.37
2023-03-20T02:30:24.406Z,15.23
2023-03-20T02:34:54.271Z,13.13
2023-03-20T02:39:12.910Z,15.37
2023-03-20T02:43:23.559Z,13.97
2023-03-20T02:47:34.345Z,14.10
2023-03-20T02:51:59.068Z,15.83
2023-03-20T02:56:12.730Z,18.53
2023-03-20T03:00:25.211Z,16.27
2023-03-20T03:04:34.760Z,16.60
2023-03-20T03:08:44.051Z,12.30
2023-03-20T03:12:54.337Z,14.63
2023-03-20T03:16:59.862Z,16.00
2023-03-20T03:21:07.511Z,16.70
2023-03-20T03:25:16.951Z,18.17
2023-03-20T03:29:25.389Z,14.17
2023-03-20T03:33:33.907Z,15.37
2023-03-20T03:37:49.213Z,15.40
2023-03-20T03:41:55.608Z,13.20
2023-03-20T03:46:04.426Z,12.63
2023-03-20T03:50:13.406Z,15.03
2023-03-20T03:54:20.379Z,11.33
2023-03-20T03:58:47.163Z,14.50
2023-03-20T04:02:55.867Z,13.97
2023-03-20T04:06:59.466Z,15.33
2023-03-20T04:11:04.978Z,10.33
2023-03-20T04:15:09.415Z,18.20
2023-03-20T04:19:14.862Z,14.50
2023-03-20T04:23:21.589Z,15.27
2023-03-20T04:27:25.675Z,12.03
2023-03-20T04:31:30.270Z,12.13
2023-03-20T04:36:01.957Z,14.00
2023-03-20T04:40:07.162Z,14.73
2023-03-20T04:44:12.861Z,12.57
2023-03-20T04:48:19.901Z,12.83
2023-03-20T04:52:26.537Z,18.07
2023-03-20T04:56:30.469Z,13.90
2023-03-20T05:00:48.255Z,12.73
2023-03-20T05:04:54.804Z,12.97
2023-03-20T05:09:01.510Z,12.43
2023-03-20T05:13:07.515Z,10.63
2023-03-20T05:17:46.148Z,11.37
2023-03-20T05:21:55.895Z,12.57
2023-03-20T05:26:20.175Z,11.83
2023-03-20T05:30:51.522Z,8.87
2023-03-20T05:35:14.329Z,13.07
2023-03-20T05:39:25.336Z,14.07
2023-03-20T05:43:53.512Z,10.23
2023-03-20T05:48:16.098Z,14.37
2023-03-20T05:52:52.145Z,10.10
2023-03-20T05:57:04.648Z,11.83
2023-03-20T06:01:33.922Z,12.23
2023-03-20T06:05:54.871Z,9.50
2023-03-20T06:09:58.658Z,11.90
2023-03-20T06:14:03.432Z,9.07
2023-03-20T06:18:16.318Z,8.90
2023-03-20T06:22:20.453Z,8.67
2023-03-20T06:26:24.109Z,10.97
2023-03-20T06:30:39.254Z,13.20
2023-03-20T06:34:47.492Z,7.97
2023-03-20T06:38:51.773Z,9.30
2023-03-20T06:42:55.494Z,8.10
2023-03-20T06:47:01.848Z,10.80
2023-03-20T06:51:08.509Z,9.13
2023-03-20T06:55:21.739Z,8.10
2023-03-20T06:59:26.958Z,8.17
2023-03-20T07:03:33.578Z,8.17
2023-03-20T07:07:38.936Z,7.47
2023-03-20T07:11:43.089Z,5.27
2023-03-20T07:16:03.124Z,8.10
2023-03-20T07:20:16.213Z,5.87
2023-03-20T07:24:22.496Z,5.20
2023-03-20T07:28:26.569Z,5.63
2023-03-20T07:32:44.633Z,4.60
2023-03-20T07:36:49.335Z,6.20
2023-03-20T07:40:58.763Z,7.37
2023-03-20T07:45:02.703Z,5.60
2023-03-20T07:49:09.186Z,5.77
2023-03-20T07:53:12.742Z,6.33
2023-03-20T07:57:20.084Z,6.37
2023-03-20T08:01:24.186Z,5.93
2023-03-20T08:05:28.360Z,5.40
2023-03-20T08:09:32.095Z,3.00
2023-03-20T08:13:37.857Z,4.03
2023-03-20T08:17:44.476Z,3.73
2023-03-20T08:21:48.633Z,4.30
2023-03-20T08:25:54.826Z,4.67
2023-03-20T08:30:01.111Z,2.73
2023-03-20T08:34:04.907Z,3.53
2023-03-20T08:38:08.488Z,3.90
2023-03-20T08:42:12.000Z,4.63
2023-03-20T08:46:17.222Z,3.17
2023-03-20T08:50:21.106Z,4.20
2023-03-20T08:54:25.507Z,3.80
2023-03-20T08:58:31.246Z,4.73
2023-03-20T09:02:46.749Z,3.10
2023-03-20T09:06:53.859Z,1.77
2023-03-20T09:10:57.640Z,1.47
2023-03-20T09:15:01.839Z,4.53
2023-03-20T09:19:07.329Z,2.13
2023-03-20T09:23:12.817Z,2.47
2023-03-20T09:27:16.401Z,1.60
2023-03-20T09:31:19.987Z,2.20
2023-03-20T09:35:25.081Z,1.53
2023-03-20T09:39:30.264Z,1.87
2023-03-20T09:43:48.355Z,4.10
2023-03-20T09:47:59.884Z,1.17
2023-03-20T09:52:10.754Z,2.10
2023-03-20T09:56:19.116Z,1.40
2023-03-20T10:00:26.291Z,3.30
2023-03-20T10:04:31.813Z,2.00
2023-03-20T10:08:40.012Z,1.37
2023-03-20T10:12:56.617Z,2.00
2023-03-20T10:17:21.180Z,1.10
2023-03-20T10:21:33.434Z,1.23
2023-03-20T10:25:44.093Z,1.90
2023-03-20T10:29:56.475Z,1.37
2023-03-20T10:34:11.463Z,2.37
2023-03-20T10:38:26.024Z,1.43
2023-03-20T10:42:35.515Z,2.47
2023-03-20T10:46:44.696Z,1.57
2023-03-20T10:50:52.465Z,2.03
2023-03-20T10:54:59.600Z,1.63
2023-03-20T10:59:09.027Z,1.03
2023-03-20T11:03:22.986Z,1.47
2023-03-20T11:07:29.233Z,1.57
2023-03-20T11:11:36.747Z,1.10
2023-03-20T11:15:41.764Z,2.17
2023-03-20T11:19:45.547Z,2.57
2023-03-20T11:23:49.444Z,1.50
2023-03-20T11:27:53.402Z,1.37
2023-03-20T11:32:06.965Z,2.57
2023-03-20T11:36:24.015Z,0.40
2023-03-20T11:40:35.332Z,2.20
2023-03-20T11:44:38.834Z,1.80
2023-03-20T11:48:47.236Z,0.97
2023-03-20T11:52:50.898Z,1.50
2023-03-20T11:56:56.679Z,1.50
2023-03-20T12:01:02.225Z,1.30
2023-03-20T12:05:21.385Z,1.53
2023-03-20T12:09:39.121Z,1.53
2023-03-20T12:13:45.023Z,1.50
2023-03-20T12:17:55.418Z,1.30
2023-03-20T12:22:09.124Z,2.93
2023-03-20T12:26:15.399Z,1.93
2023-03-20T12:30:24.388Z,2.93
2023-03-20T12:34:33.863Z,2.40
2023-03-20T12:38:40.104Z,1.90
2023-03-20T12:42:55.637Z,2.87
2023-03-20T12:47:15.192Z,1.93
2023-03-20T12:51:25.056Z,1.93
2023-03-20T12:55:43.318Z,1.77
2023-03-20T12:59:55.898Z,2.37
2023-03-20T13:04:34.571Z,3.23
2023-03-20T13:09:09.405Z,2.90
2023-03-20T13:13:23.602Z,2.47
2023-03-20T13:17:35.753Z,2.23
2023-03-20T13:21:44.071Z,1.73
2023-03-20T13:26:10.712Z,1.93
2023-03-20T13:30:36.682Z,2.37
2023-03-20T13:34:55.425Z,2.07
2023-03-20T13:39:04.955Z,2.67
2023-03-20T13:43:20.288Z,2.57
2023-03-20T13:47:28.577Z,3.27
2023-03-20T13:51:37.770Z,2.07
2023-03-20T13:55:47.840Z,2.07
2023-03-20T14:00:01.176Z,2.67
2023-03-20T14:04:10.498Z,1.83
2023-03-20T14:08:32.567Z,2.83
2023-03-20T14:12:36.232Z,1.13
2023-03-20T14:16:40.156Z,1.70
2023-03-20T14:20:52.350Z,2.80
2023-03-20T14:25:02.219Z,2.27
2023-03-20T14:29:32.800Z,1.87
2023-03-20T14:33:45.548Z,2.63
2023-03-20T14:38:13.277Z,2.70
2023-03-20T14:42:30.071Z,3.60
2023-03-20T14:46:44.449Z,4.67
2023-03-20T14:51:03.890Z,5.00
2023-03-20T14:59:52.102Z,4.67
2023-03-20T15:03:59.802Z,4.63
2023-03-20T15:08:31.515Z,4.10
2023-03-20T15:12:40.644Z,4.20
2023-03-20T15:16:46.986Z,3.23
2023-03-20T15:20:51.251Z,3.97
2023-03-20T15:24:58.920Z,2.47
2023-03-20T15:29:05.113Z,2.47
2023-03-20T15:33:28.237Z,1.93
2023-03-20T15:37:32.181Z,1.90
2023-03-20T15:41:39.448Z,3.90
2023-03-20T15:51:28.831Z,3.13
2023-03-20T15:55:32.925Z,3.20
2023-03-20T15:59:36.892Z,3.13
2023-03-20T16:03:41.992Z,3.97
2023-03-20T16:09:01.540Z,3.10
2023-03-20T16:13:09.027Z,3.63
2023-03-20T16:17:14.638Z,3.13
2023-03-20T16:21:45.016Z,2.17
2023-03-20T16:25:48.774Z,3.30
2023-03-20T16:29:55.545Z,2.73
2023-03-20T16:34:25.321Z,1.70
2023-03-20T16:38:40.547Z,1.70
2023-03-20T16:42:45.252Z,1.63
2023-03-20T16:47:01.623Z,1.93
2023-03-20T16:51:27.412Z,2.50
2023-03-20T16:55:33.124Z,2.10
2023-03-20T16:59:40.529Z,2.70
2023-03-20T17:03:52.439Z,3.53
2023-03-20T17:08:26.397Z,2.47
2023-03-20T17:12:34.091Z,2.93
2023-03-20T17:16:40.495Z,3.33
2023-03-20T17:20:46.892Z,2.73
2023-03-20T17:24:51.125Z,2.10
2023-03-20T17:28:55.805Z,1.87
2023-03-20T17:33:24.907Z,3.30
2023-03-20T17:37:43.674Z,2.43
2023-03-20T17:41:47.814Z,2.60
2023-03-20T17:45:57.721Z,4.17
2023-03-20T17:50:01.491Z,2.60
2023-03-20T17:54:06.626Z,2.33
2023-03-20T18:02:58.264Z,2.20
2023-03-20T18:07:03.331Z,2.80
2023-03-20T18:11:10.557Z,4.40
2023-03-20T18:15:14.299Z,2.10
2023-03-20T18:19:29.710Z,3.03
2023-03-20T18:23:33.448Z,3.40
2023-03-20T18:27:43.907Z,4.57
2023-03-20T18:31:47.602Z,5.10
2023-03-20T18:35:51.407Z,4.80
2023-03-20T18:40:47.472Z,5.93
2023-03-20T18:44:52.792Z,7.03
2023-03-20T18:48:56.941Z,8.47
2023-03-20T18:54:15.365Z,10.47
2023-03-20T18:58:23.817Z,11.07
2023-03-20T19:02:29.034Z,12.93
2023-03-20T19:06:33.010Z,9.47
2023-03-20T19:10:39.208Z,9.93
2023-03-20T19:14:43.128Z,9.80
2023-03-20T19:18:50.073Z,10.93
2023-03-20T19:23:00.047Z,9.60
2023-03-20T19:27:04.435Z,10.57
2023-03-20T19:31:09.448Z,9.53
2023-03-20T19:39:42.595Z,8.90
2023-03-20T19:43:52.917Z,8.90
2023-03-20T19:48:16.723Z,8.33
2023-03-20T19:52:38.866Z,9.57
2023-03-20T19:57:56.388Z,8.63
2023-03-20T20:02:00.275Z,12.70
2023-03-20T20:06:05.981Z,9.20
2023-03-20T20:10:12.567Z,8.40
2023-03-20T20:14:16.313Z,8.10
2023-03-20T20:18:45.296Z,7.00
2023-03-20T20:22:49.855Z,7.80
2023-03-20T20:27:15.186Z,7.83
2023-03-20T20:31:20.461Z,8.40
2023-03-20T20:35:51.242Z,8.00
2023-03-20T20:39:49.662Z,7.57
2023-03-20T20:44:15.041Z,6.83
2023-03-20T20:48:37.843Z,9.73
2023-03-20T20:52:42.959Z,8.43
2023-03-20T20:56:52.916Z,6.60
2023-03-20T21:00:58.720Z,6.43
2023-03-20T21:05:02.271Z,6.67
2023-03-20T21:09:33.755Z,6.47
2023-03-20T21:13:39.459Z,6.70
2023-03-20T21:17:59.476Z,8.67
2023-03-20T21:27:44.751Z,6.63
2023-03-20T21:32:24.759Z,6.20
2023-03-20T21:36:32.433Z,7.10
2023-03-20T21:40:36.179Z,7.27
2023-03-20T21:46:25.257Z,6.70
2023-03-20T22:14:05.970Z,8.13
2023-03-20T22:18:08.237Z,9.83
2023-03-20T22:27:26.847Z,8.80
2023-03-20T22:32:02.174Z,8.87
2023-03-20T22:36:43.529Z,8.00
2023-03-20T22:41:41.819Z,8.07
2023-03-20T22:45:11.422Z,8.03
2023-03-20T22:49:23.038Z,8.63
2023-03-20T22:53:26.814Z,7.33
2023-03-20T22:57:42.226Z,6.63
2023-03-20T23:01:49.124Z,8.27
2023-03-20T23:05:54.406Z,8.10
2023-03-20T23:09:58.435Z,6.43
2023-03-20T23:14:03.779Z,6.73
2023-03-20T23:23:51.465Z,9.40
2023-03-20T23:27:54.998Z,8.90
2023-03-20T23:31:58.676Z,9.67
2023-03-20T23:36:14.291Z,9.73
2023-03-20T23:40:21.765Z,9.80
2023-03-20T23:44:27.426Z,9.27
2023-03-20T23:48:52.968Z,9.03
2023-03-20T23:53:09.381Z,10.23
2023-03-20T23:57:24.078Z,10.73
